Novokuybyshevsk, Russia
Current Conditions -  °F | °C
As of 10:30 PM on Thursday 30 Oct 2014 (Local Time) from UWWW Reporting Station
Haze Haze  
Wind Chill: 39°   Ceiling: 10000
Heat Index: 43°   Visibility: 1.9mi
Dew Point: 34°   Wind: 7mph
Humidity: 70%   Direction: 200°SSW
Pressure: 30.24"   Gusts: NA
Location:  53.09°N, 49.88°E
Report Text: UWWW 301830Z 20003MPS 170V230 3100 BR SCT026 BKN100 OVC20006/01 Q1024 23190055 15//99// NOSIG RMK QFE756/1009
Loading
Personal Weather Stations






























Interactive Weather Map
Tropical Storm Tracking
New forecast layout! Learn more

10-Day Weather Forecast

Advertisements
Track Severe Weather on mobile